Time;durP1;ratioP1;P1;durP2;ratioP2;P2;SDS_P1;SDS_P2;PMS_P1;PMS_P2;Temp;Humidity;BMP_temperature;BMP_pressure;BME280_temperature;BME280_humidity;BME280_pressure;Samples;Min_cycle;Max_cycle;Signal;HPM_P1;HPM_P2
2023/06/14 00:02:47;;;;;;;2.80;2.80;;;;;;;-141.02;100.00;107971.50;5136128;27;20189;-57
2023/06/14 00:05:16;;;;;;;2.78;2.78;;;;;;;-141.02;100.00;107971.50;5136360;27;20204;-65
2023/06/14 00:07:43;;;;;;;2.70;2.70;;;;;;;-141.02;100.00;107971.50;5135922;27;20227;-57
2023/06/14 00:10:11;;;;;;;2.40;2.40;;;;;;;-141.02;100.00;107971.50;5136150;27;20218;-57
2023/06/14 00:12:40;;;;;;;2.60;2.60;;;;;;;-141.02;100.00;107971.50;5136080;27;20228;-62
2023/06/14 00:15:09;;;;;;;2.67;2.67;;;;;;;-141.02;100.00;107971.50;5136055;27;20196;-57
2023/06/14 00:17:36;;;;;;;2.88;2.88;;;;;;;-141.02;100.00;107971.50;5135746;27;20242;-58
2023/06/14 00:20:07;;;;;;;2.90;2.90;;;;;;;-141.02;100.00;107971.50;5136044;27;20196;-57
2023/06/14 00:22:37;;;;;;;3.05;3.05;;;;;;;-141.02;100.00;107971.50;5136031;27;20238;-58
2023/06/14 00:25:04;;;;;;;3.60;3.50;;;;;;;-141.02;100.00;107971.50;5135560;27;20196;-58
2023/06/14 00:27:31;;;;;;;3.28;3.28;;;;;;;-141.02;100.00;107971.50;5135612;27;20674;-58
2023/06/14 00:29:59;;;;;;;3.80;3.70;;;;;;;-141.02;100.00;107971.50;5135783;27;20193;-57
2023/06/14 00:32:27;;;;;;;4.10;4.00;;;;;;;-141.02;100.00;107971.50;5135369;27;20235;-58
2023/06/14 00:38:51;;;;;;;3.80;3.70;;;;;;;-141.02;100.00;107971.50;5135708;27;20590;-57
2023/06/14 00:41:18;;;;;;;3.20;3.20;;;;;;;-141.02;100.00;107971.50;5135604;27;20253;-57
2023/06/14 00:43:45;;;;;;;3.00;3.00;;;;;;;-141.02;100.00;107971.50;5135803;27;20225;-57
2023/06/14 00:46:12;;;;;;;3.83;3.72;;;;;;;-141.02;100.00;107971.50;5135093;27;20612;-57
2023/06/14 00:49:26;;;;;;;3.70;3.60;;;;;;;-141.02;100.00;107971.50;5135149;27;20197;-56
2023/06/14 00:51:53;;;;;;;3.30;3.30;;;;;;;-141.02;100.00;107971.50;5135116;27;20773;-61
2023/06/14 00:54:21;;;;;;;2.88;2.88;;;;;;;-141.02;100.00;107971.50;5135137;27;20293;-57
2023/06/14 00:56:48;;;;;;;2.75;2.75;;;;;;;-141.02;100.00;107971.50;5135038;27;20228;-57
2023/06/14 00:59:16;;;;;;;2.92;2.92;;;;;;;-141.02;100.00;107971.50;5135042;27;20654;-56
2023/06/14 01:01:43;;;;;;;2.70;2.70;;;;;;;-141.02;100.00;107971.50;5134961;27;20196;-57
2023/06/14 01:04:10;;;;;;;2.80;2.80;;;;;;;-141.02;100.00;107971.50;5135202;27;20241;-57
2023/06/14 01:06:46;;;;;;;3.10;3.10;;;;;;;-141.02;100.00;107971.50;5135130;27;20200;-57
2023/06/14 01:09:20;;;;;;;2.80;2.80;;;;;;;-141.02;100.00;107971.50;5134770;27;20237;-58
2023/06/14 01:11:55;;;;;;;2.80;2.80;;;;;;;-141.02;100.00;107971.50;5135035;27;20189;-57
2023/06/14 01:14:45;;;;;;;3.20;3.20;;;;;;;-141.02;100.00;107971.50;5134771;27;20192;-65
2023/06/14 01:17:21;;;;;;;3.63;3.53;;;;;;;-141.02;100.00;107971.50;5134726;27;20283;-57
2023/06/14 01:20:11;;;;;;;3.88;3.78;;;;;;;-141.02;100.00;107971.50;5134563;27;20231;-57
2023/06/14 01:23:20;;;;;;;3.70;3.60;;;;;;;-141.02;100.00;107971.50;5134801;27;20203;-61
2023/06/14 01:25:52;;;;;;;3.70;3.60;;;;;;;-141.02;100.00;107971.50;5134798;27;20228;-60
2023/06/14 01:28:20;;;;;;;4.07;3.97;;;;;;;-141.02;100.00;107971.50;5134795;27;20184;-56
2023/06/14 01:30:51;;;;;;;3.50;3.40;;;;;;;-141.02;100.00;107971.50;5134900;27;20272;-59
2023/06/14 01:33:21;;;;;;;3.90;3.80;;;;;;;-141.02;100.00;107971.50;5134772;27;20227;-57
2023/06/14 01:35:49;;;;;;;3.80;3.70;;;;;;;-141.02;100.00;107971.50;5134572;27;20703;-57
2023/06/14 01:38:18;;;;;;;3.83;3.72;;;;;;;-141.02;100.00;107971.50;5134364;27;20693;-57
2023/06/14 01:40:46;;;;;;;3.95;3.85;;;;;;;-141.02;100.00;107971.50;5134205;27;20192;-63
2023/06/14 01:43:50;;;;;;;3.70;3.60;;;;;;;-141.02;100.00;107971.50;5134099;27;20193;-57
2023/06/14 01:46:17;;;;;;;3.60;3.50;;;;;;;-141.02;100.00;107971.50;5134298;27;20257;-56
2023/06/14 01:48:45;;;;;;;4.20;4.10;;;;;;;-141.02;100.00;107971.50;5133971;27;20731;-57
2023/06/14 01:51:12;;;;;;;4.55;4.45;;;;;;;-141.02;100.00;107971.50;5134005;27;20193;-57
2023/06/14 01:57:50;;;;;;;4.20;4.10;;;;;;;-141.02;100.00;107971.50;5123221;27;20274;-58
2023/06/14 02:00:19;;;;;;;5.20;5.10;;;;;;;-141.02;100.00;107971.50;5134160;27;20196;-57
2023/06/14 02:02:46;;;;;;;5.40;5.30;;;;;;;-141.02;100.00;107971.50;5134902;27;20665;-57
2023/06/14 02:06:07;;;;;;;5.10;5.00;;;;;;;-141.02;100.00;107971.50;5133701;27;20200;-60
2023/06/14 02:08:34;;;;;;;4.10;4.00;;;;;;;-141.02;100.00;107971.50;5133901;27;20193;-56
2023/06/14 02:11:01;;;;;;;3.88;3.78;;;;;;;-141.02;100.00;107971.50;5133192;27;20231;-57
2023/06/14 02:13:28;;;;;;;3.00;3.00;;;;;;;-141.02;100.00;107971.50;5133465;27;20273;-57
2023/06/14 02:15:57;;;;;;;2.80;2.80;;;;;;;-141.02;100.00;107971.50;5133435;27;20199;-63
2023/06/14 02:18:25;;;;;;;2.80;2.80;;;;;;;-141.02;100.00;107971.50;5133779;27;20653;-57
2023/06/14 02:20:52;;;;;;;2.90;2.90;;;;;;;-141.02;100.00;107971.50;5133690;27;20196;-57
2023/06/14 02:23:19;;;;;;;2.97;2.97;;;;;;;-141.02;100.00;107971.50;5133674;27;20192;-58
2023/06/14 02:25:46;;;;;;;3.00;3.00;;;;;;;-141.02;100.00;107971.50;5133739;27;20218;-57
2023/06/14 02:28:13;;;;;;;3.15;3.15;;;;;;;-141.02;100.00;107971.50;5134168;27;20268;-58
2023/06/14 02:30:40;;;;;;;3.10;3.10;;;;;;;-141.02;100.00;107971.50;5133673;27;20269;-57
2023/06/14 02:33:12;;;;;;;3.13;3.13;;;;;;;-141.02;100.00;107971.50;5133138;27;20670;-57
2023/06/14 02:35:39;;;;;;;2.88;2.88;;;;;;;-141.02;100.00;107971.50;5133258;27;20279;-56
2023/06/14 02:38:06;;;;;;;2.90;2.90;;;;;;;-141.02;100.00;107971.50;5133473;27;20253;-58
2023/06/14 02:40:33;;;;;;;2.90;2.90;;;;;;;-141.02;100.00;107971.50;5133825;27;20204;-57
2023/06/14 02:46:21;;;;;;;2.90;2.90;;;;;;;-141.02;100.00;107971.50;5133451;27;20184;-56
2023/06/14 02:48:50;;;;;;;2.83;2.83;;;;;;;-141.02;100.00;107971.50;5133419;27;20204;-57
2023/06/14 02:51:17;;;;;;;2.90;2.90;;;;;;;-141.02;100.00;107971.50;5133356;27;20674;-57
2023/06/14 02:53:44;;;;;;;2.70;2.70;;;;;;;-141.02;100.00;107971.50;5133549;27;20277;-57
2023/06/14 02:56:45;;;;;;;3.00;3.00;;;;;;;-141.02;100.00;107971.50;5128362;28;20303;-57
2023/06/14 02:59:13;;;;;;;3.00;3.00;;;;;;;-141.02;100.00;107971.50;5092090;28;20197;-57
2023/06/14 03:01:41;;;;;;;3.00;3.00;;;;;;;-141.02;100.00;107971.50;5092069;28;20200;-56
2023/06/14 03:04:10;;;;;;;3.10;3.10;;;;;;;-141.02;100.00;107971.50;5092057;28;20679;-57
2023/06/14 03:06:37;;;;;;;3.78;3.67;;;;;;;-141.02;100.00;107971.50;5092322;28;20671;-57
2023/06/14 03:09:05;;;;;;;4.13;4.03;;;;;;;-141.02;100.00;107971.50;5091954;28;20198;-57
2023/06/14 03:11:33;;;;;;;4.40;4.30;;;;;;;-141.02;100.00;107971.50;5092204;28;20198;-57
2023/06/14 03:14:03;;;;;;;4.80;4.70;;;;;;;-141.02;100.00;107971.50;5092211;28;20725;-56
2023/06/14 03:16:34;;;;;;;4.38;4.28;;;;;;;-141.02;100.00;107971.50;5092493;28;20196;-57
2023/06/14 03:19:01;;;;;;;5.10;5.00;;;;;;;-141.02;100.00;107971.50;5091944;28;20200;-60
2023/06/14 03:21:58;;;;;;;4.63;4.53;;;;;;;-141.02;100.00;107971.50;5092297;28;20625;-57
2023/06/14 03:24:36;;;;;;;5.45;5.35;;;;;;;-141.02;100.00;107971.50;5095981;28;20197;-57
2023/06/14 03:27:49;;;;;;;5.15;5.05;;;;;;;-141.02;100.00;107971.50;5095863;28;20205;-58
2023/06/14 03:30:16;;;;;;;3.90;3.80;;;;;;;-141.02;100.00;107971.50;5096229;28;20193;-57
2023/06/14 03:32:43;;;;;;;3.60;3.50;;;;;;;-141.02;100.00;107971.50;5095702;28;20272;-58
2023/06/14 03:35:16;;;;;;;3.20;3.20;;;;;;;-141.02;100.00;107971.50;5095705;28;20327;-57
2023/06/14 03:37:45;;;;;;;3.80;3.70;;;;;;;-141.02;100.00;107971.50;5095774;28;20186;-62
2023/06/14 03:40:14;;;;;;;3.10;3.10;;;;;;;-141.02;100.00;107971.50;5095948;28;20198;-57
2023/06/14 03:42:41;;;;;;;3.10;3.10;;;;;;;-141.02;100.00;107971.50;5095593;28;20198;-57
2023/06/14 03:45:09;;;;;;;3.30;3.30;;;;;;;-141.02;100.00;107971.50;5095454;28;20194;-56
2023/06/14 03:47:36;;;;;;;3.17;3.17;;;;;;;-141.02;100.00;107971.50;5095781;28;20232;-57
2023/06/14 03:50:03;;;;;;;4.10;4.00;;;;;;;-141.02;100.00;107971.50;5095438;28;20677;-58
2023/06/14 03:52:31;;;;;;;3.80;3.70;;;;;;;-141.02;100.00;107971.50;5095564;28;20668;-60
2023/06/14 03:55:00;;;;;;;4.40;4.30;;;;;;;-141.02;100.00;107971.50;5095612;28;20280;-62
2023/06/14 03:57:27;;;;;;;4.25;4.15;;;;;;;-141.02;100.00;107971.50;5106727;27;20232;-62
2023/06/14 03:59:54;;;;;;;3.50;3.40;;;;;;;-141.02;100.00;107971.50;5136501;27;20192;-65
2023/06/14 04:02:22;;;;;;;3.10;3.10;;;;;;;-141.02;100.00;107971.50;5136443;27;20242;-57
2023/06/14 04:04:49;;;;;;;3.30;3.30;;;;;;;-141.02;100.00;107971.50;5136131;27;20192;-57
2023/06/14 04:07:19;;;;;;;4.40;4.30;;;;;;;-141.02;100.00;107971.50;5136754;27;20192;-57
2023/06/14 04:09:46;;;;;;;9.48;9.18;;;;;;;-141.02;100.00;107971.50;5135869;27;20199;-56
2023/06/14 04:12:15;;;;;;;14.30;13.80;;;;;;;-141.02;100.00;107971.50;5136273;27;20236;-62
2023/06/14 04:14:42;;;;;;;14.35;13.85;;;;;;;-141.02;100.00;107971.50;5135781;27;20721;-64
2023/06/14 04:17:09;;;;;;;16.23;15.63;;;;;;;-141.02;100.00;107971.50;5136179;27;20196;-58
2023/06/14 04:19:36;;;;;;;17.40;16.70;;;;;;;-141.02;100.00;107971.50;5135814;27;20253;-59
2023/06/14 04:22:03;;;;;;;15.48;14.98;;;;;;;-141.02;100.00;107971.50;5135622;27;20241;-57
2023/06/14 04:24:31;;;;;;;12.60;12.20;;;;;;;-141.02;100.00;107971.50;5136055;27;20685;-56
2023/06/14 04:27:00;;;;;;;10.98;10.68;;;;;;;-141.02;100.00;107971.50;5135941;27;20199;-56
2023/06/14 04:29:29;;;;;;;9.85;9.55;;;;;;;-141.02;100.00;107971.50;5135620;27;20294;-56
2023/06/14 04:31:58;;;;;;;9.50;9.20;;;;;;;-141.02;100.00;107971.50;5135500;27;20197;-57
2023/06/14 04:34:29;;;;;;;8.52;8.32;;;;;;;-141.02;100.00;107971.50;5135140;27;20231;-57
2023/06/14 04:36:57;;;;;;;14.30;13.90;;;;;;;-141.02;100.00;107971.50;5135546;27;20184;-58
2023/06/14 04:39:25;;;;;;;8.65;8.45;;;;;;;-141.02;100.00;107971.50;5135757;27;20192;-62
2023/06/14 04:41:56;;;;;;;8.40;8.20;;;;;;;-141.02;100.00;107971.50;5135719;27;20196;-56
2023/06/14 04:44:29;;;;;;;7.90;7.70;;;;;;;-141.02;100.00;107971.50;5135340;27;20271;-56
2023/06/14 04:46:58;;;;;;;8.25;8.05;;;;;;;-141.02;100.00;107971.50;5135855;27;20185;-57
2023/06/14 04:49:27;;;;;;;7.85;7.65;;;;;;;-141.02;100.00;107971.50;5135524;27;20196;-58
2023/06/14 04:51:57;;;;;;;8.18;7.97;;;;;;;-141.02;100.00;107971.50;5135419;27;20200;-57
2023/06/14 04:54:24;;;;;;;8.70;8.50;;;;;;;-141.02;100.00;107971.50;5135229;27;20285;-56
2023/06/14 04:56:51;;;;;;;14.63;14.13;;;;;;;-141.02;100.00;107971.50;5135091;27;20199;-57
2023/06/14 04:59:18;;;;;;;8.90;8.70;;;;;;;-141.02;100.00;107971.50;5135601;27;20189;-58
2023/06/14 05:01:48;;;;;;;9.35;9.05;;;;;;;-141.02;100.00;107971.50;5135323;27;20189;-62
2023/06/14 05:04:16;;;;;;;10.00;9.70;;;;;;;-141.02;100.00;107971.50;5134952;27;20283;-56
2023/06/14 05:06:45;;;;;;;11.88;11.48;;;;;;;-141.02;100.00;107971.50;5134935;27;20196;-57
2023/06/14 05:09:12;;;;;;;11.85;11.45;;;;;;;-141.02;100.00;107971.50;5134823;27;20204;-64
2023/06/14 05:11:39;;;;;;;13.00;12.60;;;;;;;-141.02;100.00;107971.50;5135065;27;20189;-57
2023/06/14 05:14:07;;;;;;;13.23;12.82;;;;;;;-141.02;100.00;107971.50;5134880;27;20277;-57
2023/06/14 05:16:34;;;;;;;13.07;12.68;;;;;;;-141.02;100.00;107971.50;5135031;27;20285;-57
2023/06/14 05:19:01;;;;;;;13.50;13.00;;;;;;;-141.02;100.00;107971.50;5134671;27;20246;-56
2023/06/14 05:21:29;;;;;;;14.35;13.85;;;;;;;-141.02;100.00;107971.50;5134562;27;20654;-56
2023/06/14 05:23:56;;;;;;;15.07;14.48;;;;;;;-141.02;100.00;107971.50;5134479;27;20196;-56
2023/06/14 05:26:28;;;;;;;17.00;16.20;;;;;;;-141.02;100.00;107971.50;5134545;27;20241;-57
2023/06/14 05:28:56;;;;;;;18.10;17.30;;;;;;;-141.02;100.00;107971.50;5134746;27;20192;-57
2023/06/14 05:31:23;;;;;;;15.80;15.20;;;;;;;-141.02;100.00;107971.50;5134632;27;20252;-56
2023/06/14 05:33:50;;;;;;;16.90;16.20;;;;;;;-141.02;100.00;107971.50;5134541;27;20684;-57
2023/06/14 05:36:17;;;;;;;16.40;15.80;;;;;;;-141.02;100.00;107971.50;5134618;27;20224;-62
2023/06/14 05:38:46;;;;;;;14.35;13.85;;;;;;;-141.02;100.00;107971.50;5134564;27;20196;-57
2023/06/14 05:41:13;;;;;;;20.10;19.30;;;;;;;-141.02;100.00;107971.50;5134206;27;20189;-56
2023/06/14 05:43:40;;;;;;;14.27;13.77;;;;;;;-141.02;100.00;107971.50;5134173;27;20227;-57
2023/06/14 05:46:07;;;;;;;16.30;15.60;;;;;;;-141.02;100.00;107971.50;5133118;27;20196;-57
2023/06/14 05:48:34;;;;;;;14.70;14.10;;;;;;;-141.02;100.00;107971.50;5134366;27;20196;-57
2023/06/14 05:51:01;;;;;;;16.00;15.40;;;;;;;-141.02;100.00;107971.50;5134320;27;20200;-57
2023/06/14 05:53:28;;;;;;;18.73;17.83;;;;;;;-141.02;100.00;107971.50;5134457;27;20220;-58
2023/06/14 05:55:57;;;;;;;18.45;17.55;;;;;;;-141.02;100.00;107971.50;5134204;27;20245;-66
2023/06/14 05:58:24;;;;;;;18.15;17.25;;;;;;;-141.02;100.00;107971.50;5133665;27;20658;-57
2023/06/14 06:00:53;;;;;;;18.95;18.05;;;;;;;-141.02;100.00;107971.50;5133982;27;20654;-65
2023/06/14 06:03:20;;;;;;;17.00;16.30;;;;;;;-141.02;100.00;107971.50;5133741;27;20202;-57
2023/06/14 06:05:47;;;;;;;15.93;15.23;;;;;;;-141.02;100.00;107971.50;5134111;27;20196;-56
2023/06/14 06:08:16;;;;;;;16.33;15.63;;;;;;;-141.02;100.00;107971.50;5133979;27;20260;-58
2023/06/14 06:10:43;;;;;;;16.50;15.70;;;;;;;-141.02;100.00;107971.50;5133556;27;20280;-57
2023/06/14 06:13:12;;;;;;;18.33;17.42;;;;;;;-141.02;100.00;107971.50;5133597;27;20662;-64
2023/06/14 06:15:39;;;;;;;19.42;18.42;;;;;;;-141.02;100.00;107971.50;5133523;27;20192;-56
2023/06/14 06:18:06;;;;;;;19.10;18.20;;;;;;;-141.02;100.00;107971.50;5133568;27;20673;-57
2023/06/14 06:20:33;;;;;;;18.20;17.30;;;;;;;-141.02;100.00;107971.50;5133833;27;20192;-57
2023/06/14 06:23:01;;;;;;;17.00;16.20;;;;;;;-141.02;100.00;107971.50;5133737;27;20226;-66
2023/06/14 06:25:28;;;;;;;17.42;16.52;;;;;;;-141.02;100.00;107971.50;5133662;27;20200;-57
2023/06/14 06:27:55;;;;;;;17.40;16.60;;;;;;;-141.02;100.00;107971.50;5133694;27;20192;-62
2023/06/14 06:30:24;;;;;;;18.00;17.20;;;;;;;-141.02;100.00;107971.50;5133403;27;20193;-66
2023/06/14 06:32:51;;;;;;;17.73;16.83;;;;;;;-141.02;100.00;107971.50;5133651;27;20196;-64
2023/06/14 06:35:18;;;;;;;17.35;16.55;;;;;;;-141.02;100.00;107971.50;5133493;27;20228;-56
2023/06/14 06:37:46;;;;;;;16.67;15.88;;;;;;;-141.02;100.00;107971.50;5133247;27;20681;-57
2023/06/14 06:40:13;;;;;;;17.48;16.50;;;;;;;-141.02;100.00;107971.50;5134051;27;20188;-57
2023/06/14 06:42:40;;;;;;;19.00;18.00;;;;;;;-141.02;100.00;107971.50;5133187;27;20708;-56
2023/06/14 06:45:07;;;;;;;18.80;17.80;;;;;;;-141.02;100.00;107971.50;5133072;27;20188;-60
2023/06/14 06:47:36;;;;;;;18.92;17.83;;;;;;;-141.02;100.00;107971.50;5133419;27;20245;-57
2023/06/14 06:50:03;;;;;;;18.65;17.65;;;;;;;-141.02;100.00;107971.50;5133830;27;20204;-58
2023/06/14 07:09:51;;;;;;;19.52;18.15;;;;;;;-141.02;100.00;107971.50;5130923;27;20601;-58
2023/06/14 07:12:18;;;;;;;22.23;20.92;;;;;;;-141.02;100.00;107971.50;5130573;27;20279;-58
2023/06/14 07:14:45;;;;;;;22.08;20.67;;;;;;;-141.02;100.00;107971.50;5130198;27;20231;-58
2023/06/14 07:17:12;;;;;;;22.90;21.63;;;;;;;-141.02;100.00;107971.50;5130135;27;20204;-58
2023/06/14 07:19:39;;;;;;;20.70;19.00;;;;;;;-141.02;100.00;107971.50;5130087;27;20760;-58
2023/06/14 07:22:06;;;;;;;19.30;18.20;;;;;;;-141.02;100.00;107971.50;5130382;27;20381;-69
2023/06/14 07:24:34;;;;;;;17.25;16.15;;;;;;;-141.02;100.00;107971.50;5130024;27;20677;-58
2023/06/14 07:27:04;;;;;;;19.08;17.67;;;;;;;-141.02;100.00;107971.50;5130297;27;20196;-58
2023/06/14 07:29:31;;;;;;;18.20;16.90;;;;;;;-141.02;100.00;107971.50;5129895;27;20571;-58
2023/06/14 07:31:57;;;;;;;21.83;19.92;;;;;;;-141.02;99.97;107971.50;5130132;27;20604;-58
2023/06/14 07:34:24;;;;;;;19.80;18.30;;;;;;;-141.02;100.00;107971.50;5130086;27;20242;-58
2023/06/14 07:36:51;;;;;;;19.38;17.95;;;;;;;-141.02;100.00;107971.50;5130087;27;20271;-58
2023/06/14 07:39:19;;;;;;;20.20;18.90;;;;;;;-141.02;100.00;107971.50;5129675;27;20777;-58
2023/06/14 07:41:46;;;;;;;20.23;18.73;;;;;;;-141.02;100.00;107971.50;5129679;27;20192;-58
2023/06/14 07:44:15;;;;;;;23.60;21.60;;;;;;;-141.02;94.98;107969.53;5129925;27;20201;-58
2023/06/14 07:46:43;;;;;;;22.30;20.60;;;;;;;-141.02;100.00;107969.53;5129905;27;20283;-58
2023/06/14 07:49:10;;;;;;;23.05;21.25;;;;;;;-141.02;98.80;107969.53;5129826;27;20200;-58
2023/06/14 07:51:37;;;;;;;20.27;18.67;;;;;;;-141.02;100.00;107969.53;5129828;27;20280;-58
2023/06/14 07:54:07;;;;;;;20.77;19.17;;;;;;;-141.02;100.00;107969.53;5129425;27;20253;-58
2023/06/14 07:56:34;;;;;;;21.05;19.45;;;;;;;-141.02;100.00;107969.53;5129847;27;20281;-58
2023/06/14 07:59:01;;;;;;;21.00;19.60;;;;;;;-141.02;100.00;107969.53;5129557;27;20307;-58
2023/06/14 08:01:29;;;;;;;20.58;18.98;;;;;;;-141.02;100.00;107969.53;5129548;27;20283;-58
2023/06/14 08:03:56;;;;;;;22.73;20.83;;;;;;;-141.02;99.32;107969.53;5129625;27;20219;-58
2023/06/14 08:06:23;;;;;;;23.80;22.20;;;;;;;-141.02;100.00;107969.53;5129350;27;20536;-58
2023/06/14 08:08:50;;;;;;;22.80;20.90;;;;;;;-141.02;100.00;107719.09;5126380;27;20607;-59
2023/06/14 08:11:17;;;;;;;21.00;19.30;;;;;;;-141.02;100.00;107719.09;5115656;28;20272;-58
2023/06/14 08:13:44;;;;;;;22.45;20.55;;;;;;;-141.02;96.52;107719.09;5115633;28;20203;-58
2023/06/14 08:16:11;;;;;;;21.30;19.60;;;;;;;-141.02;100.00;107719.09;5115604;28;20280;-59
2023/06/14 08:18:39;;;;;;;22.05;20.35;;;;;;;-141.02;96.58;107719.09;5115212;28;20260;-59
2023/06/14 08:21:07;;;;;;;24.15;22.05;;;;;;;-141.02;92.20;107218.31;5115037;28;20284;-59
2023/06/14 08:23:34;;;;;;;23.70;21.75;;;;;;;-141.02;97.24;107468.69;5115796;28;20204;-58
2023/06/14 08:26:03;;;;;;;26.50;24.20;;;;;;;-141.02;90.99;107468.69;5115073;28;20228;-58
2023/06/14 08:28:30;;;;;;;26.40;24.00;;;;;;;-141.02;89.84;106717.56;5115357;28;20246;-58
2023/06/14 08:30:57;;;;;;;26.35;23.95;;;;;;;-141.02;94.90;106967.91;5115035;28;20654;-58
2023/06/14 08:33:24;;;;;;;26.50;24.10;;;;;;;-141.02;91.50;106717.56;5114974;28;20288;-58
2023/06/14 08:35:53;;;;;;;25.40;23.10;;;;;;;-141.02;90.99;106717.56;5114744;28;20582;-58
2023/06/14 08:38:20;;;;;;;26.13;23.83;;;;;;;-141.02;87.04;106717.56;5115069;28;20236;-58
2023/06/14 08:40:51;;;;;;;24.92;22.73;;;;;;;-141.02;91.37;106717.56;5115124;28;20273;-58
2023/06/14 08:43:18;;;;;;;24.83;22.63;;;;;;;-141.02;93.39;106717.56;5115139;28;20276;-58
2023/06/14 08:45:49;;;;;;;23.10;21.10;;;;;;;-141.02;92.55;106717.56;5115064;28;20194;-58
2023/06/14 08:48:17;;;;;;;25.38;22.88;;;;;;;-141.02;86.60;105966.59;5114730;28;20191;-58
2023/06/14 08:50:46;;;;;;;24.83;22.52;;;;;;;-141.02;88.12;106216.91;5114672;28;20246;-58
2023/06/14 08:53:19;;;;;;;23.63;21.52;;;;;;;-141.02;87.59;106216.91;5114547;28;20237;-58
2023/06/14 08:55:47;;;;;;;25.02;22.83;;;;;;;-141.02;88.31;106467.22;5114958;28;20228;-58
2023/06/14 08:58:15;;;;;;;25.90;23.30;;;;;;;-141.02;80.78;105716.31;5114728;28;20224;-58
2023/06/14 09:00:42;;;;;;;26.17;23.38;;;;;;;-141.02;85.03;105215.78;5114760;28;20193;-58
2023/06/14 09:03:13;;;;;;;23.63;21.10;;;;;;;-141.02;88.62;105466.03;5114725;28;20284;-58
2023/06/14 09:05:40;;;;;;;24.38;21.73;;;;;;;-141.02;83.46;105215.78;5114750;28;20189;-58
2023/06/14 09:08:07;;;;;;;25.55;22.75;;;;;;;-141.02;83.64;105215.78;5114385;28;20609;-58
2023/06/14 09:10:37;;;;;;;25.88;23.17;;;;;;;-141.02;85.40;105466.03;5114435;27;20197;-58
2023/06/14 09:13:04;;;;;;;27.60;24.60;;;;;;;-141.02;80.37;104715.34;5114290;28;20211;-58
2023/06/14 09:15:31;;;;;;;24.65;21.00;;;;;;;-141.02;85.20;104965.56;5114218;28;20283;-58
2023/06/14 09:17:58;;;;;;;23.23;20.73;;;;;;;-141.02;83.47;105215.78;5114073;28;20694;-59
2023/06/14 09:20:25;;;;;;;25.17;22.23;;;;;;;-141.02;83.62;104965.56;5113622;28;20233;-58
2023/06/14 09:22:54;;;;;;;26.00;22.13;;;;;;;-141.02;81.07;103964.81;5113766;28;20283;-59
2023/06/14 09:25:22;;;;;;;28.02;24.15;;;;;;;-141.02;76.02;103464.53;5113892;27;20658;-61
2023/06/14 09:27:52;;;;;;;27.65;23.55;;;;;;;-141.02;80.95;103714.66;5113771;28;20245;-59
2023/06/14 09:30:21;;;;;;;27.08;24.13;;;;;;;-141.02;81.42;103714.66;5113893;28;20682;-59
2023/06/14 09:32:48;;;;;;;28.05;25.05;;;;;;;-141.02;83.17;103464.53;5113723;28;20193;-58
2023/06/14 09:35:19;;;;;;;26.98;24.08;;;;;;;-141.02;85.54;104465.16;5114016;28;20242;-59
2023/06/14 09:37:46;;;;;;;28.23;25.23;;;;;;;-141.02;85.29;104715.34;5113940;28;20257;-59
2023/06/14 09:40:13;;;;;;;28.95;25.85;;;;;;;-141.02;80.61;103714.66;5113934;28;20300;-59
2023/06/14 09:42:41;;;;;;;28.48;25.05;;;;;;;-141.02;79.64;103964.81;5113724;28;20281;-59
2023/06/14 09:45:13;;;;;;;28.63;24.73;;;;;;;-141.02;76.82;102964.34;5113843;28;20193;-59
2023/06/14 09:47:40;;;;;;;30.88;27.48;;;;;;;-141.02;72.63;101964.16;5113857;28;20189;-58
2023/06/14 09:50:08;;;;;;;30.27;27.17;;;;;;;-141.02;78.16;102714.25;5113373;28;20284;-59
2023/06/14 09:52:35;;;;;;;30.58;27.27;;;;;;;-141.02;73.21;101964.16;5113685;28;20189;-59
2023/06/14 09:55:14;;;;;;;28.48;24.02;;;;;;;-141.02;75.47;102214.16;5113709;28;20203;-59
2023/06/14 09:57:44;;;;;;;29.58;24.75;;;;;;;-141.02;69.09;100964.25;5113360;28;20228;-59
2023/06/14 10:00:15;;;;;;;30.88;26.13;;;;;;;-141.02;66.14;99215.16;5113137;28;20229;-59
2023/06/14 10:02:50;;;;;;;30.25;25.25;;;;;;;-141.02;70.62;98216.03;5113575;28;20214;-59
2023/06/14 10:05:20;;;;;;;28.83;23.95;;;;;;;-141.02;69.75;97217.22;5113242;28;20542;-59
2023/06/14 10:07:53;;;;;;;27.90;23.40;;;;;;;-141.02;70.92;96967.56;5113025;28;20710;-59
2023/06/14 10:10:21;;;;;;;27.02;22.85;;;;;;;-141.02;76.22;98465.78;5113127;28;20192;-59
2023/06/14 10:12:57;;;;;;;29.10;24.60;;;;;;;-141.02;76.48;97716.59;5113057;28;20638;-59
2023/06/14 10:15:33;;;;;;;27.73;23.10;;;;;;;-141.02;78.51;96717.94;5113331;28;20246;-59
2023/06/14 10:18:07;;;;;;;28.55;25.02;;;;;;;-141.02;82.14;97217.22;5113258;28;20707;-59
2023/06/14 10:20:42;;;;;;;28.17;24.98;;;;;;;-141.02;79.96;97466.91;5113245;28;20552;-59
2023/06/14 10:23:15;;;;;;;29.20;25.67;;;;;;;-141.02;82.92;97466.91;5113214;28;20720;-58
2023/06/14 10:25:43;;;;;;;28.02;24.00;;;;;;;-141.02;75.92;97217.22;5112682;28;20272;-59
2023/06/14 10:28:18;;;;;;;27.88;23.85;;;;;;;-141.02;78.14;97466.91;5113524;28;20201;-59
2023/06/14 10:31:08;;;;;;;29.70;26.23;;;;;;;-141.02;72.16;96218.69;5112681;28;20628;-59
2023/06/14 10:33:36;;;;;;;26.95;23.35;;;;;;;-141.02;73.82;97217.22;5112567;28;20224;-59
2023/06/14 10:36:30;;;;;;;28.65;25.63;;;;;;;-141.02;77.18;98465.78;5112960;28;20281;-59
2023/06/14 10:39:02;;;;;;;29.88;26.77;;;;;;;-141.02;72.82;97716.59;5112607;28;20721;-58
2023/06/14 10:41:30;;;;;;;30.00;26.48;;;;;;;-141.02;68.33;96468.31;5112673;28;20225;-58
2023/06/14 10:44:40;;;;;;;30.58;27.27;;;;;;;-141.02;74.49;97466.91;5112875;28;20276;-59
2023/06/14 10:47:22;;;;;;;29.70;26.48;;;;;;;-141.02;72.00;96967.56;5069870;28;20200;-58
2023/06/14 10:49:52;;;;;;;29.13;25.70;;;;;;;-141.02;71.49;97217.22;5111027;28;20206;-59
2023/06/14 10:52:25;;;;;;;31.00;27.30;;;;;;;-141.02;70.13;96967.56;5112517;28;20254;-59
2023/06/14 10:55:09;;;;;;;30.95;27.25;;;;;;;-141.02;71.09;96717.94;5112840;28;20185;-58
2023/06/14 10:57:36;;;;;;;29.17;25.67;;;;;;;-141.02;63.80;94471.97;5112507;28;20564;-59
2023/06/14 11:00:12;;;;;;;31.45;27.23;;;;;;;-141.02;65.00;93474.22;5112626;28;20312;-58
2023/06/14 11:03:15;;;;;;;31.00;26.90;;;;;;;-141.02;65.99;93723.63;5112461;28;20568;-58
2023/06/14 11:05:52;;;;;;;29.90;26.02;;;;;;;-141.02;66.09;93723.63;5112410;28;20650;-59
2023/06/14 11:08:48;;;;;;;29.10;25.77;;;;;;;-141.02;65.85;93474.22;5112363;28;20251;-58
2023/06/14 11:11:16;;;;;;;31.02;26.40;;;;;;;-141.02;65.62;93224.84;5112628;28;20185;-59
2023/06/14 11:13:46;;;;;;;31.00;25.70;;;;;;;-141.02;68.85;92726.13;5112626;28;20193;-59
2023/06/14 11:16:14;;;;;;;28.13;23.42;;;;;;;-141.02;72.27;94471.97;5112316;28;20276;-59
2023/06/14 11:18:44;;;;;;;30.23;25.80;;;;;;;-141.02;67.58;93973.06;5112184;28;20778;-59
2023/06/14 11:21:12;;;;;;;28.67;24.63;;;;;;;-141.02;66.90;93973.06;5112545;28;20187;-59
2023/06/14 11:23:39;;;;;;;29.55;23.95;;;;;;;-141.02;67.47;94471.97;5112518;28;20224;-59
2023/06/14 11:26:06;;;;;;;31.08;25.80;;;;;;;-141.02;62.72;93723.63;5112169;28;20652;-59
2023/06/14 11:28:40;;;;;;;30.50;25.35;;;;;;;-141.02;67.14;93474.22;5112526;28;20275;-59
2023/06/14 11:31:07;;;;;;;30.95;25.50;;;;;;;-141.02;65.14;91978.16;5112407;28;20221;-75
2023/06/14 11:33:35;;;;;;;30.95;25.95;;;;;;;-141.02;64.45;90731.94;5112424;28;20283;-59
2023/06/14 11:36:07;;;;;;;30.52;25.27;;;;;;;-141.02;63.17;90233.56;5112044;28;20197;-59
2023/06/14 11:38:37;;;;;;;31.40;26.05;;;;;;;-141.02;58.13;87493.84;5112059;28;20643;-59
2023/06/14 11:41:04;;;;;;;29.42;23.17;;;;;;;-141.02;60.80;88489.84;5111952;28;20576;-59